Time;durP1;ratioP1;P1;durP2;ratioP2;P2;SDS_P1;SDS_P2;PMS_P1;PMS_P2;Temp;Humidity;BMP_temperature;BMP_pressure;BME280_temperature;BME280_humidity;BME280_pressure;Samples;Min_cycle;Max_cycle;Signal;HPM_P1;HPM_P2
2023/05/03 00:01:36;;;;;;;6.83;4.07;;;6.50;99.90;;;;;;5013079;28;20528;-69
2023/05/03 00:04:06;;;;;;;7.13;3.93;;;6.50;99.90;;;;;;5013139;28;20511;-67
2023/05/03 00:06:34;;;;;;;5.40;3.43;;;6.50;99.90;;;;;;5013400;28;20542;-68
2023/05/03 00:09:02;;;;;;;9.37;4.13;;;6.50;99.90;;;;;;5013253;28;21023;-69
2023/05/03 00:11:30;;;;;;;7.20;3.63;;;6.40;99.90;;;;;;5013311;28;20489;-68
2023/05/03 00:13:58;;;;;;;5.40;4.20;;;6.40;99.90;;;;;;5013020;28;21010;-69
2023/05/03 00:16:27;;;;;;;5.10;3.47;;;6.40;99.90;;;;;;5013288;28;20534;-68
2023/05/03 00:18:55;;;;;;;8.77;4.70;;;6.30;99.90;;;;;;5016111;28;20485;-68
2023/05/03 00:21:25;;;;;;;7.27;4.20;;;6.30;99.90;;;;;;5017002;28;20807;-68
2023/05/03 00:23:53;;;;;;;6.40;4.73;;;6.20;99.90;;;;;;5017673;28;20465;-69
2023/05/03 00:26:22;;;;;;;6.57;4.10;;;6.20;99.90;;;;;;5017037;28;20439;-69
2023/05/03 00:28:50;;;;;;;7.30;4.70;;;6.20;99.90;;;;;;5017473;28;20468;-70
2023/05/03 00:31:19;;;;;;;5.90;4.67;;;6.10;99.90;;;;;;5015675;28;20542;-70
2023/05/03 00:33:47;;;;;;;4.83;4.00;;;6.10;99.90;;;;;;5015475;28;20467;-69
2023/05/03 00:36:16;;;;;;;8.60;5.13;;;6.00;99.90;;;;;;5016884;28;20862;-70
2023/05/03 00:38:45;;;;;;;8.30;5.37;;;6.00;99.90;;;;;;5015561;28;20441;-70
2023/05/03 00:41:13;;;;;;;7.80;5.30;;;5.90;99.90;;;;;;5017047;28;20472;-69
2023/05/03 00:43:43;;;;;;;7.83;5.13;;;5.90;99.90;;;;;;5015420;28;20473;-69
2023/05/03 00:46:11;;;;;;;8.17;5.30;;;5.90;99.90;;;;;;5017101;28;20600;-69
2023/05/03 00:48:45;;;;;;;9.50;5.60;;;5.80;99.90;;;;;;5016727;28;20459;-69
2023/05/03 00:51:14;;;;;;;8.20;5.37;;;5.80;99.90;;;;;;5015182;28;20434;-68
2023/05/03 00:53:44;;;;;;;7.83;6.03;;;5.80;99.90;;;;;;5016387;28;20890;-69
2023/05/03 00:56:18;;;;;;;7.93;5.80;;;5.80;99.90;;;;;;5016618;28;20449;-69
2023/05/03 00:58:46;;;;;;;7.27;5.33;;;5.80;99.90;;;;;;5016621;28;20749;-69
2023/05/03 01:01:15;;;;;;;8.87;6.37;;;5.70;99.90;;;;;;5014855;28;21068;-69
2023/05/03 01:03:45;;;;;;;8.00;5.57;;;5.70;99.90;;;;;;5016251;28;20456;-69
2023/05/03 01:06:22;;;;;;;6.00;4.50;;;5.70;99.90;;;;;;5014985;28;20451;-69
2023/05/03 01:09:01;;;;;;;8.40;5.37;;;5.70;99.90;;;;;;5014954;28;20442;-69
2023/05/03 01:11:38;;;;;;;10.43;5.77;;;5.60;99.90;;;;;;5016703;28;20457;-69
2023/05/03 01:14:13;;;;;;;8.20;5.63;;;5.60;99.90;;;;;;5017460;28;20566;-69
2023/05/03 01:16:48;;;;;;;10.03;6.63;;;5.60;99.90;;;;;;5016330;28;20428;-69
2023/05/03 01:19:27;;;;;;;9.30;5.30;;;5.60;99.90;;;;;;5014626;28;20491;-70
2023/05/03 01:22:10;;;;;;;10.10;6.23;;;5.60;99.90;;;;;;5016229;28;20455;-69
2023/05/03 01:24:41;;;;;;;6.97;4.97;;;5.60;99.90;;;;;;5014648;28;20512;-69
2023/05/03 01:27:11;;;;;;;7.17;5.60;;;5.60;99.90;;;;;;5015099;28;20942;-69
2023/05/03 01:29:39;;;;;;;11.47;5.23;;;5.60;99.90;;;;;;5015387;28;20796;-69
2023/05/03 01:32:15;;;;;;;7.40;5.40;;;5.60;99.90;;;;;;5015778;28;20483;-69
2023/05/03 01:34:50;;;;;;;4.80;3.80;;;5.60;99.90;;;;;;5014482;28;20508;-69
2023/05/03 01:37:19;;;;;;;11.80;6.17;;;5.60;99.90;;;;;;5016318;28;20876;-69
2023/05/03 01:39:53;;;;;;;8.40;5.10;;;5.70;99.90;;;;;;5015551;28;20482;-69
2023/05/03 01:42:24;;;;;;;8.37;5.47;;;5.60;99.90;;;;;;5015712;28;20558;-69
2023/05/03 01:44:53;;;;;;;10.20;6.03;;;5.70;99.90;;;;;;5016591;28;20808;-69
2023/05/03 01:47:21;;;;;;;8.20;5.23;;;5.70;99.90;;;;;;5015579;28;20462;-69
2023/05/03 01:49:49;;;;;;;8.73;6.10;;;5.70;99.90;;;;;;5014137;28;20790;-69
2023/05/03 01:52:18;;;;;;;8.63;5.80;;;5.70;99.90;;;;;;5014866;28;20817;-69
2023/05/03 01:54:46;;;;;;;8.57;5.97;;;5.70;99.90;;;;;;5015623;28;20464;-69
2023/05/03 01:57:14;;;;;;;7.97;6.80;;;5.80;99.90;;;;;;5015636;28;20528;-69
2023/05/03 01:59:44;;;;;;;9.00;5.80;;;5.80;99.90;;;;;;5015759;28;20440;-69
2023/05/03 02:02:12;;;;;;;6.73;5.93;;;5.80;99.90;;;;;;5013848;28;20465;-69
2023/05/03 02:04:41;;;;;;;7.73;5.93;;;5.80;99.90;;;;;;5013945;28;20897;-69
2023/05/03 02:07:09;;;;;;;7.03;5.73;;;5.80;99.90;;;;;;5014121;28;20855;-69
2023/05/03 02:09:37;;;;;;;8.70;6.40;;;5.90;99.90;;;;;;5015177;28;20433;-73
2023/05/03 02:12:06;;;;;;;8.50;5.47;;;5.90;99.90;;;;;;5015099;28;20814;-69
2023/05/03 02:14:34;;;;;;;9.63;5.73;;;5.90;99.90;;;;;;5018951;28;21014;-70
2023/05/03 02:17:07;;;;;;;6.30;5.40;;;5.90;99.90;;;;;;5020418;28;20503;-69
2023/05/03 02:19:35;;;;;;;8.63;6.23;;;5.90;99.90;;;;;;5014633;28;20432;-69
2023/05/03 02:22:03;;;;;;;8.73;5.90;;;5.90;99.90;;;;;;5017790;28;20474;-69
2023/05/03 02:24:34;;;;;;;8.03;6.13;;;6.00;99.90;;;;;;5017846;28;20455;-69
2023/05/03 02:27:03;;;;;;;9.03;5.90;;;6.00;99.90;;;;;;5015715;28;20512;-69
2023/05/03 02:29:32;;;;;;;9.43;6.10;;;6.00;99.90;;;;;;5015711;28;20446;-69
2023/05/03 02:32:04;;;;;;;9.70;6.60;;;6.00;99.90;;;;;;5014404;28;20451;-69
2023/05/03 02:34:33;;;;;;;7.83;6.47;;;6.00;99.90;;;;;;5013764;28;20554;-69
2023/05/03 02:37:01;;;;;;;6.87;5.60;;;6.00;99.90;;;;;;5013841;28;20443;-69
2023/05/03 02:39:30;;;;;;;8.40;5.80;;;6.10;99.90;;;;;;5015174;28;20565;-69
2023/05/03 02:41:59;;;;;;;7.47;5.40;;;6.10;99.90;;;;;;5014899;28;20536;-69
2023/05/03 02:44:28;;;;;;;8.30;5.63;;;6.10;99.90;;;;;;5014800;28;20471;-69
2023/05/03 02:46:59;;;;;;;7.53;5.60;;;6.10;99.90;;;;;;5016150;28;20511;-69
2023/05/03 02:49:29;;;;;;;9.33;5.00;;;6.10;99.90;;;;;;5013583;28;20844;-69
2023/05/03 02:51:57;;;;;;;9.63;5.57;;;6.10;99.90;;;;;;5014640;28;20436;-69
2023/05/03 02:54:25;;;;;;;6.73;5.33;;;6.10;99.90;;;;;;5014373;28;20466;-69
2023/05/03 02:56:54;;;;;;;8.70;6.27;;;6.20;99.90;;;;;;5013121;28;20446;-69
2023/05/03 02:59:22;;;;;;;6.63;5.70;;;6.20;99.90;;;;;;5013072;28;20982;-69
2023/05/03 03:01:51;;;;;;;9.00;6.20;;;6.20;99.90;;;;;;5012896;28;20495;-69
2023/05/03 03:04:19;;;;;;;7.57;6.00;;;6.20;99.90;;;;;;5012817;28;20978;-69
2023/05/03 03:06:52;;;;;;;18.20;6.40;;;6.20;99.90;;;;;;5014036;28;20872;-69
2023/05/03 03:09:20;;;;;;;8.50;6.33;;;6.20;99.90;;;;;;5012861;28;20443;-69
2023/05/03 03:11:48;;;;;;;8.73;6.03;;;6.20;99.90;;;;;;5014083;28;20436;-69
2023/05/03 03:14:17;;;;;;;9.90;8.90;;;6.20;99.90;;;;;;5013867;28;20462;-69
2023/05/03 03:16:45;;;;;;;8.77;6.93;;;6.20;99.90;;;;;;5012610;28;20480;-69
2023/05/03 03:19:14;;;;;;;11.13;7.13;;;6.20;99.90;;;;;;5014174;28;20836;-69
2023/05/03 03:21:42;;;;;;;7.60;6.03;;;6.20;99.90;;;;;;5012495;28;20549;-69
2023/05/03 03:24:11;;;;;;;9.03;6.50;;;6.20;99.90;;;;;;5013636;28;20504;-69
2023/05/03 03:26:40;;;;;;;7.43;6.50;;;6.20;99.90;;;;;;5012737;28;20480;-69
2023/05/03 03:29:09;;;;;;;9.07;7.80;;;6.20;99.90;;;;;;5013659;28;20437;-69
2023/05/03 03:31:41;;;;;;;11.30;7.60;;;6.20;99.90;;;;;;5012364;28;21007;-69
2023/05/03 03:34:09;;;;;;;8.60;6.70;;;6.20;99.90;;;;;;5013750;28;20484;-69
2023/05/03 03:36:38;;;;;;;8.50;6.30;;;6.20;99.90;;;;;;5013719;28;20468;-69
2023/05/03 03:39:06;;;;;;;8.47;7.07;;;6.20;99.90;;;;;;5012339;28;20479;-69
2023/05/03 03:41:38;;;;;;;8.10;5.87;;;6.20;99.90;;;;;;5012194;28;20866;-69
2023/05/03 03:44:06;;;;;;;8.23;6.60;;;6.20;99.90;;;;;;5012076;28;20480;-69
2023/05/03 03:46:34;;;;;;;8.00;6.90;;;6.20;99.90;;;;;;5013407;28;20445;-69
2023/05/03 03:49:02;;;;;;;7.50;6.70;;;6.20;99.90;;;;;;5013347;28;20507;-69
2023/05/03 03:51:31;;;;;;;8.00;6.77;;;6.20;99.90;;;;;;5012071;28;20474;-69
2023/05/03 03:53:59;;;;;;;9.37;7.00;;;6.20;99.90;;;;;;5011499;28;20471;-69
2023/05/03 03:56:34;;;;;;;9.80;6.83;;;6.20;99.90;;;;;;5012083;28;20951;-70
2023/05/03 03:59:03;;;;;;;9.37;7.00;;;6.20;99.90;;;;;;5012013;28;20890;-69
2023/05/03 04:01:32;;;;;;;9.37;7.33;;;6.20;99.90;;;;;;5011913;28;20480;-69
2023/05/03 04:04:00;;;;;;;9.40;7.37;;;6.20;99.90;;;;;;5011765;28;20510;-69
2023/05/03 04:06:31;;;;;;;7.90;6.10;;;6.20;99.90;;;;;;5012265;28;20557;-69
2023/05/03 04:09:04;;;;;;;10.13;7.90;;;6.20;99.90;;;;;;5012578;28;20473;-69
2023/05/03 04:11:34;;;;;;;10.50;8.07;;;6.20;99.90;;;;;;5013596;28;20518;-69
2023/05/03 04:14:06;;;;;;;9.87;8.07;;;6.20;99.90;;;;;;5011939;28;20527;-69
2023/05/03 04:16:34;;;;;;;9.23;7.80;;;6.20;99.90;;;;;;5011897;28;20494;-69
2023/05/03 04:19:04;;;;;;;8.80;7.27;;;6.20;99.90;;;;;;5012643;28;20793;-69
2023/05/03 04:21:35;;;;;;;8.63;7.00;;;6.20;99.90;;;;;;5012582;28;20433;-69
2023/05/03 04:24:04;;;;;;;8.03;6.60;;;6.20;99.90;;;;;;5011684;28;20838;-69
2023/05/03 04:26:34;;;;;;;8.43;6.90;;;6.30;99.90;;;;;;5011753;28;20444;-69
2023/05/03 04:29:18;;;;;;;9.80;7.73;;;6.20;99.90;;;;;;5012172;28;20488;-69
2023/05/03 04:31:47;;;;;;;8.50;6.90;;;6.20;99.90;;;;;;5013344;28;20903;-69
2023/05/03 04:34:17;;;;;;;11.67;7.23;;;6.30;99.90;;;;;;5011534;28;20519;-69
2023/05/03 04:36:48;;;;;;;7.97;6.43;;;6.30;99.90;;;;;;5011668;28;20440;-69
2023/05/03 04:39:17;;;;;;;7.77;6.90;;;6.30;99.90;;;;;;5011925;28;20913;-69
2023/05/03 04:41:47;;;;;;;8.20;7.03;;;6.20;99.90;;;;;;5011540;28;20994;-69
2023/05/03 04:44:17;;;;;;;14.27;10.97;;;6.30;99.90;;;;;;5011369;28;20487;-69
2023/05/03 04:46:48;;;;;;;11.00;8.00;;;6.30;99.90;;;;;;5011684;28;20946;-69
2023/05/03 04:49:18;;;;;;;10.10;7.60;;;6.30;99.90;;;;;;5011354;28;20511;-69
2023/05/03 04:51:46;;;;;;;14.33;7.57;;;6.30;99.90;;;;;;5011610;28;20461;-69
2023/05/03 04:54:16;;;;;;;10.60;7.57;;;6.40;99.90;;;;;;5011523;28;20877;-69
2023/05/03 04:56:44;;;;;;;9.40;7.43;;;6.40;99.90;;;;;;5013249;28;20767;-69
2023/05/03 04:59:19;;;;;;;8.90;7.20;;;6.40;99.90;;;;;;5011428;28;20447;-69
2023/05/03 05:01:47;;;;;;;8.80;6.43;;;6.40;99.90;;;;;;5011423;28;20452;-69
2023/05/03 05:04:15;;;;;;;8.50;7.03;;;6.50;99.90;;;;;;5011184;28;20483;-69
2023/05/03 05:06:50;;;;;;;10.50;7.23;;;6.50;99.90;;;;;;5016643;28;20430;-69
2023/05/03 05:09:22;;;;;;;9.50;7.30;;;6.50;99.90;;;;;;5014858;28;20440;-69
2023/05/03 05:11:53;;;;;;;12.80;8.10;;;6.50;99.90;;;;;;5014789;28;20468;-69
2023/05/03 05:14:30;;;;;;;8.27;7.10;;;6.60;99.90;;;;;;5014750;28;20479;-69
2023/05/03 05:16:58;;;;;;;8.37;6.40;;;6.60;99.90;;;;;;5014808;28;20447;-69
2023/05/03 05:19:27;;;;;;;8.63;6.90;;;6.70;99.90;;;;;;5014665;28;20972;-69
2023/05/03 05:21:56;;;;;;;8.17;7.37;;;6.70;99.90;;;;;;5014587;28;20447;-69
2023/05/03 05:24:31;;;;;;;9.00;7.00;;;6.70;99.90;;;;;;5014467;28;20518;-69
2023/05/03 05:27:00;;;;;;;13.00;7.10;;;6.70;99.90;;;;;;5016070;28;20477;-69
2023/05/03 05:29:30;;;;;;;11.13;7.30;;;6.80;99.90;;;;;;5014449;28;20451;-69
2023/05/03 05:32:02;;;;;;;7.70;6.50;;;6.90;99.90;;;;;;5014458;28;20867;-69
2023/05/03 05:34:31;;;;;;;8.03;7.23;;;6.90;99.90;;;;;;5014675;28;20562;-69
2023/05/03 05:37:12;;;;;;;9.20;7.23;;;6.90;99.90;;;;;;5014310;28;20867;-69
2023/05/03 05:39:41;;;;;;;13.37;7.27;;;7.00;99.90;;;;;;5014272;28;21023;-69
2023/05/03 05:42:10;;;;;;;8.07;6.57;;;7.10;99.90;;;;;;5014121;28;20455;-69
2023/05/03 05:44:41;;;;;;;10.90;7.30;;;7.10;99.90;;;;;;5013896;28;20515;-69
2023/05/03 05:47:10;;;;;;;8.23;6.73;;;7.10;99.90;;;;;;5014154;28;20441;-69
2023/05/03 05:49:40;;;;;;;7.23;6.00;;;7.20;99.90;;;;;;5013966;28;20992;-69
2023/05/03 05:52:08;;;;;;;10.70;6.97;;;7.20;99.90;;;;;;5014049;28;20470;-69
2023/05/03 05:54:36;;;;;;;7.97;6.60;;;7.30;99.90;;;;;;5015188;28;20464;-69
2023/05/03 05:57:04;;;;;;;10.60;7.50;;;7.30;99.90;;;;;;5013972;28;20969;-69
2023/05/03 05:59:33;;;;;;;7.20;6.43;;;7.40;99.90;;;;;;5013981;28;20887;-69
2023/05/03 06:02:02;;;;;;;7.87;6.80;;;7.40;99.90;;;;;;5013813;28;20869;-69
2023/05/03 06:04:30;;;;;;;8.80;6.30;;;7.50;99.90;;;;;;5015075;28;20487;-69
2023/05/03 06:06:59;;;;;;;12.00;7.47;;;7.50;99.90;;;;;;5013751;28;20965;-69
2023/05/03 06:09:27;;;;;;;8.13;6.60;;;7.60;99.90;;;;;;5015295;28;20450;-69
2023/05/03 06:12:01;;;;;;;7.70;6.87;;;7.60;99.90;;;;;;5013741;28;20494;-69
2023/05/03 06:14:31;;;;;;;9.77;7.03;;;7.70;99.90;;;;;;5016915;28;20459;-69
2023/05/03 06:17:00;;;;;;;15.70;6.80;;;7.80;99.90;;;;;;5013808;28;20486;-70
2023/05/03 06:19:30;;;;;;;8.20;6.10;;;7.80;99.90;;;;;;5013961;28;20448;-70
2023/05/03 06:21:58;;;;;;;8.97;5.93;;;7.80;99.90;;;;;;5013666;28;20490;-69
2023/05/03 06:24:31;;;;;;;8.97;5.97;;;7.90;99.90;;;;;;5013403;28;20484;-69
2023/05/03 06:27:00;;;;;;;8.87;6.50;;;8.00;99.90;;;;;;5015543;28;20424;-69
2023/05/03 06:29:28;;;;;;;9.63;5.80;;;8.00;99.90;;;;;;5014347;28;20487;-69
2023/05/03 06:31:57;;;;;;;8.03;5.67;;;8.10;99.90;;;;;;5013282;28;20444;-70
2023/05/03 06:34:26;;;;;;;7.03;4.50;;;8.20;99.90;;;;;;5013349;28;21001;-69
2023/05/03 06:36:57;;;;;;;7.33;4.63;;;8.20;99.90;;;;;;5013341;28;20806;-69
2023/05/03 06:39:25;;;;;;;9.33;5.20;;;8.30;99.90;;;;;;5013129;28;20440;-69
2023/05/03 06:41:53;;;;;;;6.50;5.10;;;8.40;99.90;;;;;;5014562;28;20471;-69
2023/05/03 06:44:22;;;;;;;7.73;4.37;;;8.40;99.90;;;;;;5014732;28;20891;-70
2023/05/03 06:46:51;;;;;;;8.50;5.20;;;8.50;99.90;;;;;;5014440;28;20439;-69
2023/05/03 06:49:20;;;;;;;7.50;4.60;;;8.50;99.90;;;;;;5013163;28;20816;-69
2023/05/03 06:51:49;;;;;;;5.63;3.87;;;8.60;99.90;;;;;;5014370;28;20955;-69
2023/05/03 06:54:19;;;;;;;7.33;4.23;;;8.60;99.90;;;;;;5014577;28;20479;-69
2023/05/03 06:56:47;;;;;;;8.93;4.37;;;8.70;99.90;;;;;;5014517;28;20470;-69
2023/05/03 06:59:16;;;;;;;5.63;4.50;;;8.70;99.90;;;;;;5014653;28;20443;-69
2023/05/03 07:01:44;;;;;;;6.70;4.17;;;8.80;99.90;;;;;;5014126;28;20439;-69
2023/05/03 07:04:13;;;;;;;5.67;4.00;;;8.90;99.90;;;;;;5014048;28;20567;-69
2023/05/03 07:06:41;;;;;;;7.07;3.93;;;8.90;99.90;;;;;;5014710;28;20463;-69
2023/05/03 07:09:24;;;;;;;7.03;3.23;;;8.90;99.90;;;;;;5014132;28;20841;-69
2023/05/03 07:12:08;;;;;;;8.93;4.50;;;9.00;99.90;;;;;;5014937;28;20431;-69
2023/05/03 07:14:37;;;;;;;4.70;3.23;;;9.10;99.90;;;;;;5014545;28;20464;-69
2023/05/03 07:17:05;;;;;;;10.47;4.17;;;9.20;99.90;;;;;;5014581;28;20844;-69
2023/05/03 07:19:33;;;;;;;6.03;4.00;;;9.20;99.90;;;;;;5013956;28;20526;-70
2023/05/03 07:22:02;;;;;;;7.40;4.30;;;9.30;99.90;;;;;;5012479;28;20444;-70
2023/05/03 07:24:31;;;;;;;6.60;4.20;;;9.30;99.90;;;;;;5013762;28;20476;-70
2023/05/03 07:27:00;;;;;;;6.60;4.10;;;9.40;99.90;;;;;;5013538;28;20436;-70
2023/05/03 07:29:28;;;;;;;5.60;3.53;;;9.40;99.90;;;;;;5013929;28;20551;-70
2023/05/03 07:31:56;;;;;;;6.17;3.80;;;9.40;99.90;;;;;;5013850;28;20439;-70
2023/05/03 07:34:25;;;;;;;7.30;4.30;;;9.50;99.90;;;;;;5012309;28;20554;-70
2023/05/03 07:36:53;;;;;;;5.50;4.30;;;9.50;99.90;;;;;;5014060;28;20432;-70
2023/05/03 07:39:21;;;;;;;6.20;4.10;;;9.60;99.90;;;;;;5013765;28;20436;-70
2023/05/03 07:41:50;;;;;;;7.60;3.50;;;9.60;99.90;;;;;;5014042;28;20816;-70
2023/05/03 07:44:18;;;;;;;6.77;3.90;;;9.70;99.90;;;;;;5012271;28;20483;-70
2023/05/03 07:46:46;;;;;;;5.80;4.20;;;9.70;99.90;;;;;;5013688;28;20460;-70
2023/05/03 07:49:15;;;;;;;7.63;5.17;;;9.80;99.90;;;;;;5013447;28;20877;-70
2023/05/03 07:51:43;;;;;;;6.30;4.63;;;9.80;99.90;;;;;;5013596;28;20440;-70
2023/05/03 07:54:11;;;;;;;6.40;4.83;;;9.90;99.90;;;;;;5013485;28;20470;-71
2023/05/03 07:56:39;;;;;;;6.50;4.33;;;10.00;99.90;;;;;;5013590;28;20518;-70
2023/05/03 07:59:09;;;;;;;6.33;4.20;;;10.10;99.90;;;;;;5013289;28;20435;-70
2023/05/03 08:01:37;;;;;;;6.00;3.43;;;10.10;99.90;;;;;;5013724;28;20439;-70
2023/05/03 08:04:06;;;;;;;7.27;4.17;;;10.20;99.90;;;;;;5012028;28;20468;-70
2023/05/03 08:06:37;;;;;;;9.37;4.27;;;10.30;99.90;;;;;;5013187;28;20467;-70
2023/05/03 08:09:05;;;;;;;6.60;4.40;;;10.30;99.90;;;;;;5013924;28;20421;-70
2023/05/03 08:11:33;;;;;;;8.93;4.80;;;10.40;99.90;;;;;;5013161;28;20490;-70
2023/05/03 08:14:01;;;;;;;5.00;3.90;;;10.40;99.90;;;;;;5013639;28;20456;-70
2023/05/03 08:16:31;;;;;;;5.07;3.50;;;10.50;99.90;;;;;;5013600;28;20472;-70
2023/05/03 08:19:00;;;;;;;7.73;4.07;;;10.50;99.90;;;;;;5013491;28;20443;-70
2023/05/03 08:21:29;;;;;;;7.60;3.67;;;10.60;99.90;;;;;;5013589;28;20443;-70
2023/05/03 08:23:57;;;;;;;6.43;4.00;;;10.60;99.90;;;;;;5013493;28;20820;-70
2023/05/03 08:26:27;;;;;;;4.97;3.20;;;10.70;99.90;;;;;;5013900;28;20464;-70
2023/05/03 08:28:56;;;;;;;8.33;4.23;;;10.70;99.90;;;;;;5013821;28;20436;-70
2023/05/03 08:31:24;;;;;;;7.43;3.70;;;10.80;99.90;;;;;;5013337;28;20536;-70
2023/05/03 08:33:54;;;;;;;5.93;3.80;;;10.80;99.80;;;;;;5013605;28;20487;-71
2023/05/03 08:36:22;;;;;;;5.73;4.20;;;10.80;99.60;;;;;;5013486;28;20915;-70
2023/05/03 08:38:50;;;;;;;6.80;4.50;;;10.90;99.60;;;;;;5014301;28;20443;-71
2023/05/03 08:41:26;;;;;;;7.27;5.93;;;10.90;99.50;;;;;;5017096;28;20471;-70
2023/05/03 08:43:59;;;;;;;11.37;8.83;;;11.00;99.50;;;;;;5016941;28;20447;-70
2023/05/03 08:46:28;;;;;;;9.03;7.77;;;11.00;99.40;;;;;;5016869;28;20467;-70
2023/05/03 08:48:59;;;;;;;9.40;7.57;;;11.00;99.20;;;;;;5016898;28;20447;-70
2023/05/03 08:51:28;;;;;;;7.80;6.23;;;11.10;99.20;;;;;;5017306;28;20527;-71
2023/05/03 08:53:56;;;;;;;11.00;6.70;;;11.10;99.00;;;;;;5016805;28;20800;-70
2023/05/03 08:56:29;;;;;;;9.30;6.80;;;11.10;99.00;;;;;;5016855;28;20950;-70
2023/05/03 08:59:03;;;;;;;8.67;7.13;;;11.20;99.00;;;;;;5016713;28;20435;-70
2023/05/03 09:01:32;;;;;;;8.80;7.90;;;11.20;98.90;;;;;;5017150;28;20428;-71
2023/05/03 09:04:02;;;;;;;8.37;6.40;;;11.30;98.90;;;;;;5017126;28;20573;-71
2023/05/03 09:06:33;;;;;;;5.80;4.00;;;11.30;98.60;;;;;;5016700;28;20539;-71
2023/05/03 09:09:04;;;;;;;6.97;3.90;;;11.30;98.40;;;;;;5016327;28;20432;-71
2023/05/03 09:11:33;;;;;;;8.00;4.27;;;11.30;98.10;;;;;;5016706;28;20455;-70
2023/05/03 09:14:09;;;;;;;5.97;4.43;;;11.30;98.00;;;;;;5016460;28;20455;-70
2023/05/03 09:16:39;;;;;;;6.33;5.50;;;11.30;98.00;;;;;;5016566;28;20473;-70
2023/05/03 09:19:10;;;;;;;7.13;6.43;;;11.40;98.00;;;;;;5016252;28;20801;-71
2023/05/03 09:21:39;;;;;;;8.40;7.30;;;11.40;97.90;;;;;;5016745;28;20424;-70
2023/05/03 09:24:18;;;;;;;9.10;7.77;;;11.40;97.80;;;;;;5016444;28;20455;-70
2023/05/03 09:26:48;;;;;;;8.20;6.60;;;11.40;97.60;;;;;;5016489;28;20509;-70
2023/05/03 09:29:29;;;;;;;10.03;7.43;;;11.40;97.50;;;;;;5016981;28;20444;-70
2023/05/03 09:31:59;;;;;;;8.33;5.77;;;11.50;97.60;;;;;;5014887;28;20440;-70
2023/05/03 09:34:30;;;;;;;7.20;5.20;;;11.50;97.50;;;;;;5016054;28;21037;-70
2023/05/03 09:36:58;;;;;;;6.20;3.60;;;11.50;97.40;;;;;;5016158;28;20474;-70
2023/05/03 09:39:27;;;;;;;6.10;4.40;;;11.60;97.30;;;;;;5016597;28;20432;-71
2023/05/03 09:41:55;;;;;;;5.47;3.80;;;11.60;97.30;;;;;;5015836;28;21031;-71
2023/05/03 09:44:40;;;;;;;6.97;4.37;;;11.70;97.30;;;;;;5016442;28;20465;-71
2023/05/03 09:47:09;;;;;;;7.70;4.00;;;11.80;97.30;;;;;;5017182;28;20558;-71
2023/05/03 09:49:39;;;;;;;6.57;4.17;;;11.80;97.30;;;;;;5016280;28;20452;-71
2023/05/03 09:52:08;;;;;;;6.63;4.50;;;11.90;97.20;;;;;;5015414;28;20428;-71
2023/05/03 09:54:36;;;;;;;7.47;4.67;;;11.90;97.20;;;;;;5015795;28;20455;-71
2023/05/03 09:57:06;;;;;;;5.10;4.60;;;12.00;97.20;;;;;;5015922;28;20448;-71
2023/05/03 09:59:37;;;;;;;7.03;5.40;;;12.00;97.10;;;;;;5015886;28;20490;-71
2023/05/03 10:02:07;;;;;;;8.70;5.87;;;12.10;97.20;;;;;;5015541;28;20490;-71
2023/05/03 10:04:43;;;;;;;8.47;7.63;;;12.10;97.10;;;;;;5015827;28;20444;-71
2023/05/03 10:07:14;;;;;;;9.47;8.50;;;12.20;97.00;;;;;;5015794;28;20550;-71
2023/05/03 10:09:44;;;;;;;8.63;7.80;;;12.30;97.00;;;;;;5015838;28;20520;-71
2023/05/03 10:12:16;;;;;;;8.73;7.90;;;12.40;96.90;;;;;;5015118;28;20444;-71
2023/05/03 10:14:46;;;;;;;6.90;6.20;;;12.40;96.90;;;;;;5013810;28;20464;-71
2023/05/03 10:17:18;;;;;;;9.67;7.40;;;12.40;96.90;;;;;;5015256;28;20474;-71
2023/05/03 10:19:55;;;;;;;8.70;6.83;;;12.60;97.00;;;;;;5015353;28;20420;-71
2023/05/03 10:22:23;;;;;;;11.13;7.20;;;12.80;97.10;;;;;;5016294;28;20428;-71
2023/05/03 10:25:10;;;;;;;7.10;6.40;;;13.00;97.00;;;;;;5018693;28;20460;-71
2023/05/03 10:27:53;;;;;;;6.83;6.10;;;13.10;96.70;;;;;;5016835;28;20466;-71
2023/05/03 10:30:33;;;;;;;7.60;5.40;;;13.30;96.80;;;;;;5017548;28;20424;-72
2023/05/03 10:33:29;;;;;;;7.40;5.70;;;13.40;96.80;;;;;;5018594;28;20428;-71
2023/05/03 10:36:00;;;;;;;7.43;5.77;;;13.60;96.70;;;;;;5015640;28;20424;-71
2023/05/03 10:38:30;;;;;;;7.90;6.10;;;13.70;96.60;;;;;;5016636;28;20783;-70
2023/05/03 10:41:02;;;;;;;5.80;5.20;;;13.70;96.30;;;;;;5015970;28;20420;-70
2023/05/03 10:43:46;;;;;;;6.90;5.97;;;13.70;95.90;;;;;;5015552;28;20428;-70
2023/05/03 10:46:32;;;;;;;7.03;6.40;;;13.70;95.80;;;;;;5015836;28;20513;-70
2023/05/03 10:49:17;;;;;;;9.40;6.87;;;13.70;95.80;;;;;;5015009;28;20487;-71
2023/05/03 10:51:48;;;;;;;7.07;5.93;;;13.70;95.70;;;;;;5015382;28;20608;-71
2023/05/03 10:54:18;;;;;;;6.23;5.63;;;13.70;95.60;;;;;;5014718;28;20518;-71
2023/05/03 10:56:54;;;;;;;6.07;4.93;;;13.80;95.50;;;;;;5015113;28;20448;-70
2023/05/03 10:59:24;;;;;;;7.90;5.40;;;13.80;95.60;;;;;;5015286;28;20432;-70
2023/05/03 11:01:53;;;;;;;6.50;5.90;;;13.90;95.70;;;;;;5014881;28;20435;-70
2023/05/03 11:04:33;;;;;;;6.83;5.87;;;14.00;95.40;;;;;;5014440;28;20475;-70
2023/05/03 11:07:03;;;;;;;9.83;7.17;;;14.00;95.40;;;;;;5014399;28;20457;-71
2023/05/03 11:09:33;;;;;;;7.83;7.03;;;14.10;95.20;;;;;;5014233;28;20444;-70
2023/05/03 11:12:06;;;;;;;7.93;6.30;;;14.20;95.00;;;;;;5014236;28;20516;-69
2023/05/03 11:14:34;;;;;;;8.17;6.70;;;14.20;94.80;;;;;;5014020;28;21053;-70
2023/05/03 11:17:03;;;;;;;9.03;6.57;;;14.20;94.80;;;;;;5014080;28;20439;-70
2023/05/03 11:19:31;;;;;;;5.80;5.20;;;14.10;94.70;;;;;;5013975;28;20494;-70
2023/05/03 11:22:00;;;;;;;6.27;4.60;;;14.00;94.70;;;;;;5014002;28;20436;-70
2023/05/03 11:24:30;;;;;;;5.47;4.93;;;14.00;94.60;;;;;;5014446;28;20871;-70
2023/05/03 11:26:58;;;;;;;5.87;5.27;;;14.00;94.60;;;;;;5013828;28;20475;-70
2023/05/03 11:29:35;;;;;;;6.93;5.10;;;14.00;94.70;;;;;;5012713;28;20933;-70
2023/05/03 11:32:03;;;;;;;5.93;5.33;;;14.20;94.90;;;;;;5013918;28;20443;-70
2023/05/03 11:34:31;;;;;;;9.50;5.80;;;14.30;94.80;;;;;;5013676;28;20460;-70
2023/05/03 11:36:59;;;;;;;6.60;4.67;;;14.30;94.60;;;;;;5013791;28;20433;-70
2023/05/03 11:39:32;;;;;;;7.20;5.00;;;14.40;94.50;;;;;;5013756;28;20473;-70
2023/05/03 11:42:04;;;;;;;9.33;5.80;;;14.40;94.30;;;;;;5012546;28;20444;-71
2023/05/03 11:44:32;;;;;;;6.70;5.43;;;14.30;94.10;;;;;;5013606;28;20470;-71
2023/05/03 11:47:00;;;;;;;6.87;6.17;;;14.30;94.10;;;;;;5013597;28;20945;-70
2023/05/03 11:49:29;;;;;;;7.67;4.73;;;14.20;94.00;;;;;;5013617;28;20444;-70
2023/05/03 11:51:57;;;;;;;10.80;5.00;;;14.30;94.10;;;;;;5013516;28;20863;-71
2023/05/03 11:54:27;;;;;;;5.47;4.90;;;14.30;94.00;;;;;;5013411;28;20484;-70
2023/05/03 11:56:58;;;;;;;7.60;4.90;;;14.30;94.00;;;;;;5013848;28;20494;-70
2023/05/03 11:59:45;;;;;;;6.27;5.20;;;14.30;94.00;;;;;;5014066;28;20507;-70
2023/05/03 12:02:14;;;;;;;6.40;5.20;;;14.30;93.70;;;;;;5013955;28;20426;-71
2023/05/03 12:04:44;;;;;;;7.23;4.70;;;14.20;93.80;;;;;;5013328;28;20480;-70
2023/05/03 12:07:13;;;;;;;6.43;5.00;;;14.10;93.70;;;;;;5013510;28;20490;-71
2023/05/03 12:09:48;;;;;;;6.47;5.30;;;14.10;93.70;;;;;;5013630;28;20953;-70
2023/05/03 12:12:37;;;;;;;6.23;4.73;;;14.00;93.50;;;;;;5013727;28;20440;-71
2023/05/03 12:15:13;;;;;;;5.80;5.00;;;13.90;93.90;;;;;;5019328;28;20976;-70
2023/05/03 12:17:45;;;;;;;6.93;4.87;;;13.80;93.60;;;;;;5018713;28;20452;-70
2023/05/03 12:20:18;;;;;;;9.63;5.53;;;13.90;93.70;;;;;;5019959;28;20427;-70
2023/05/03 12:22:49;;;;;;;7.63;5.40;;;13.90;93.50;;;;;;5019784;28;20796;-70
2023/05/03 12:25:19;;;;;;;6.53;5.10;;;14.00;93.40;;;;;;5019811;28;20455;-70
2023/05/03 12:27:54;;;;;;;7.33;5.50;;;14.00;93.50;;;;;;5019859;28;20462;-70
2023/05/03 12:30:42;;;;;;;7.37;4.83;;;14.10;93.70;;;;;;5019723;28;20950;-70
2023/05/03 12:33:14;;;;;;;8.00;6.40;;;14.20;93.70;;;;;;5019736;28;20451;-70
2023/05/03 12:35:44;;;;;;;6.43;5.57;;;14.30;93.50;;;;;;5018239;28;20444;-70
2023/05/03 12:38:15;;;;;;;9.00;5.67;;;14.30;93.60;;;;;;5020130;28;20424;-70
2023/05/03 12:40:45;;;;;;;9.20;7.77;;;14.40;93.60;;;;;;5019596;28;20436;-71
2023/05/03 12:43:15;;;;;;;6.83;6.00;;;14.40;93.50;;;;;;5018060;28;20501;-71
2023/05/03 12:45:44;;;;;;;9.83;7.27;;;14.40;93.20;;;;;;5019355;28;20439;-71
2023/05/03 12:48:25;;;;;;;9.30;7.13;;;14.40;93.30;;;;;;5017922;28;21023;-71
2023/05/03 12:50:54;;;;;;;7.53;5.87;;;14.50;93.10;;;;;;5019461;28;20557;-70
2023/05/03 12:53:42;;;;;;;7.00;5.67;;;14.40;93.10;;;;;;5019319;28;20473;-70
2023/05/03 12:56:14;;;;;;;9.53;6.80;;;14.50;93.20;;;;;;5019415;28;20511;-71
2023/05/03 12:58:48;;;;;;;8.03;7.20;;;14.50;93.20;;;;;;5019318;28;20527;-71
2023/05/03 13:01:20;;;;;;;7.03;6.13;;;14.50;92.90;;;;;;5019641;28;20803;-70
2023/05/03 13:04:08;;;;;;;10.20;6.50;;;14.50;93.00;;;;;;5019457;28;20471;-71
2023/05/03 13:06:57;;;;;;;7.67;6.13;;;14.50;93.00;;;;;;5019173;28;20435;-71
2023/05/03 13:09:28;;;;;;;10.73;6.00;;;14.50;93.10;;;;;;5019202;28;20931;-71
2023/05/03 13:12:19;;;;;;;7.40;5.83;;;14.60;93.20;;;;;;5019519;28;20435;-71